C6575 KACY-KACY
Flight info
| Callsign | C6575 |
|---|---|
| Flight time | 0h 32m |
| Altitude | 1300 |
| Route | VFR |
| Aircraft | AS65/L-V/N |
Departure
| Time | 2026-05-05 01:42 |
|---|---|
| Airport | Atlantic City International Airport (KACY) |
Arrival
| Time | 2026-05-05 02:14 |
|---|---|
| Airport | Atlantic City International Airport (KACY) |
| Time | Latitude | Longitude | Altitude | Speed | Heading |
|---|---|---|---|---|---|
| 2026-05-05 01:34 | 39.45109 | -74.56763 | 70 ft | 0 kts | 217° |
| 2026-05-05 01:40 | 39.45093 | -74.56767 | 85 ft | 6 kts | 148° |
| 2026-05-05 01:40 | 39.45112 | -74.56742 | 115 ft | 8 kts | 146° |
| 2026-05-05 01:41 | 39.45084 | -74.56709 | 255 ft | 25 kts | 148° |
| 2026-05-05 01:41 | 39.44901 | -74.56336 | 380 ft | 70 kts | 127° |
| 2026-05-05 01:41 | 39.44673 | -74.55599 | 498 ft | 107 kts | 115° |
| 2026-05-05 01:41 | 39.44492 | -74.54538 | 634 ft | 133 kts | 105° |
| 2026-05-05 01:42 | 39.44397 | -74.53330 | 804 ft | 136 kts | 100° |
| 2026-05-05 01:42 | 39.44386 | -74.52137 | 1024 ft | 136 kts | 98° |
| 2026-05-05 01:42 | 39.44411 | -74.50897 | 1145 ft | 136 kts | 98° |
| 2026-05-05 01:42 | 39.44428 | -74.49687 | 1176 ft | 135 kts | 98° |
| 2026-05-05 01:43 | 39.44438 | -74.48472 | 1196 ft | 135 kts | 99° |
| 2026-05-05 01:43 | 39.44438 | -74.47250 | 1202 ft | 138 kts | 101° |
| 2026-05-05 01:43 | 39.44430 | -74.46024 | 1222 ft | 131 kts | 103° |
| 2026-05-05 01:43 | 39.44410 | -74.44858 | 1210 ft | 129 kts | 103° |
| 2026-05-05 01:44 | 39.44453 | -74.43688 | 1212 ft | 135 kts | 91° |
| 2026-05-05 01:44 | 39.44695 | -74.42500 | 1213 ft | 138 kts | 80° |
| 2026-05-05 01:44 | 39.44997 | -74.41342 | 1210 ft | 138 kts | 79° |
| 2026-05-05 01:44 | 39.45296 | -74.40160 | 1211 ft | 138 kts | 80° |
| 2026-05-05 01:45 | 39.45601 | -74.38982 | 1212 ft | 139 kts | 79° |
| 2026-05-05 01:45 | 39.45938 | -74.37776 | 1219 ft | 143 kts | 78° |
| 2026-05-05 01:45 | 39.46294 | -74.36575 | 1216 ft | 142 kts | 76° |
| 2026-05-05 01:45 | 39.46660 | -74.35396 | 1220 ft | 140 kts | 76° |
| 2026-05-05 01:46 | 39.47037 | -74.34236 | 1215 ft | 140 kts | 75° |
| 2026-05-05 01:46 | 39.47429 | -74.33079 | 1223 ft | 140 kts | 74° |
| 2026-05-05 01:46 | 39.47810 | -74.31984 | 1223 ft | 131 kts | 73° |
| 2026-05-05 01:46 | 39.48170 | -74.30964 | 1217 ft | 123 kts | 73° |
| 2026-05-05 01:47 | 39.48526 | -74.29952 | 1219 ft | 123 kts | 74° |
| 2026-05-05 01:47 | 39.48875 | -74.28953 | 1216 ft | 121 kts | 75° |
| 2026-05-05 01:47 | 39.49193 | -74.27934 | 1206 ft | 123 kts | 79° |
| 2026-05-05 01:47 | 39.49487 | -74.26896 | 1223 ft | 122 kts | 79° |
| 2026-05-05 01:48 | 39.49765 | -74.25866 | 1225 ft | 121 kts | 81° |
| 2026-05-05 01:48 | 39.50022 | -74.24843 | 1218 ft | 119 kts | 83° |
| 2026-05-05 01:48 | 39.50257 | -74.23827 | 1220 ft | 119 kts | 84° |
| 2026-05-05 01:48 | 39.50368 | -74.22799 | 1214 ft | 111 kts | 112° |
| 2026-05-05 01:49 | 39.49989 | -74.22062 | 1225 ft | 93 kts | 159° |
| 2026-05-05 01:49 | 39.49424 | -74.21711 | 1224 ft | 90 kts | 167° |
| 2026-05-05 01:49 | 39.48857 | -74.21381 | 1227 ft | 89 kts | 168° |
| 2026-05-05 01:49 | 39.48289 | -74.21054 | 1228 ft | 89 kts | 168° |
| 2026-05-05 01:50 | 39.47721 | -74.20731 | 1229 ft | 89 kts | 168° |
| 2026-05-05 01:50 | 39.47155 | -74.20413 | 1221 ft | 89 kts | 169° |
| 2026-05-05 01:50 | 39.46584 | -74.20094 | 1222 ft | 90 kts | 169° |
| 2026-05-05 01:50 | 39.46012 | -74.19767 | 1226 ft | 90 kts | 168° |
| 2026-05-05 01:51 | 39.45450 | -74.19438 | 1227 ft | 90 kts | 168° |
| 2026-05-05 01:51 | 39.44884 | -74.19098 | 1226 ft | 90 kts | 167° |
| 2026-05-05 01:51 | 39.44323 | -74.18756 | 1238 ft | 89 kts | 167° |
| 2026-05-05 01:51 | 39.43765 | -74.18416 | 1228 ft | 89 kts | 167° |
| 2026-05-05 01:52 | 39.43208 | -74.18080 | 1231 ft | 89 kts | 168° |
| 2026-05-05 01:52 | 39.42642 | -74.17742 | 1235 ft | 90 kts | 168° |
| 2026-05-05 01:52 | 39.42074 | -74.17405 | 1233 ft | 90 kts | 168° |
| 2026-05-05 01:52 | 39.41505 | -74.17066 | 1231 ft | 90 kts | 168° |
| 2026-05-05 01:53 | 39.40945 | -74.16729 | 1228 ft | 90 kts | 168° |
| 2026-05-05 01:53 | 39.40378 | -74.16382 | 1240 ft | 90 kts | 167° |
| 2026-05-05 01:53 | 39.39824 | -74.16041 | 1235 ft | 88 kts | 167° |
| 2026-05-05 01:53 | 39.39272 | -74.15702 | 1242 ft | 88 kts | 167° |
| 2026-05-05 01:54 | 39.38720 | -74.15363 | 1244 ft | 88 kts | 167° |
| 2026-05-05 01:54 | 39.38166 | -74.15021 | 1239 ft | 88 kts | 167° |
| 2026-05-05 01:54 | 39.37603 | -74.14671 | 1232 ft | 91 kts | 166° |
| 2026-05-05 01:54 | 39.37194 | -74.14414 | 1239 ft | 92 kts | 165° |
| 2026-05-05 01:55 | 39.36620 | -74.14051 | 1238 ft | 92 kts | 166° |
| 2026-05-05 01:55 | 39.36040 | -74.13687 | 1243 ft | 93 kts | 166° |
| 2026-05-05 01:55 | 39.35468 | -74.13328 | 1237 ft | 93 kts | 166° |
| 2026-05-05 01:55 | 39.34895 | -74.12966 | 1241 ft | 92 kts | 166° |
| 2026-05-05 01:56 | 39.34323 | -74.12595 | 1239 ft | 92 kts | 166° |
| 2026-05-05 01:56 | 39.33761 | -74.12221 | 1241 ft | 89 kts | 166° |
| 2026-05-05 01:56 | 39.33214 | -74.11848 | 1242 ft | 89 kts | 165° |
| 2026-05-05 01:56 | 39.32668 | -74.11468 | 1248 ft | 89 kts | 165° |
| 2026-05-05 01:57 | 39.32120 | -74.11078 | 1253 ft | 90 kts | 165° |
| 2026-05-05 01:57 | 39.31572 | -74.10688 | 1250 ft | 91 kts | 165° |
| 2026-05-05 01:57 | 39.31016 | -74.10297 | 1250 ft | 90 kts | 166° |
| 2026-05-05 01:57 | 39.30476 | -74.09921 | 1253 ft | 90 kts | 166° |
| 2026-05-05 01:58 | 39.29919 | -74.09538 | 1252 ft | 92 kts | 166° |
| 2026-05-05 01:58 | 39.29351 | -74.09157 | 1256 ft | 90 kts | 169° |
| 2026-05-05 01:58 | 39.28803 | -74.09184 | 1244 ft | 79 kts | 213° |
| 2026-05-05 01:58 | 39.28489 | -74.09781 | 1255 ft | 85 kts | 245° |
| 2026-05-05 01:59 | 39.28378 | -74.10543 | 1251 ft | 88 kts | 255° |
| 2026-05-05 01:59 | 39.28303 | -74.11315 | 1250 ft | 87 kts | 254° |
| 2026-05-05 01:59 | 39.28243 | -74.12088 | 1251 ft | 88 kts | 254° |
| 2026-05-05 01:59 | 39.28199 | -74.12874 | 1248 ft | 88 kts | 256° |
| 2026-05-05 02:00 | 39.28142 | -74.13648 | 1248 ft | 85 kts | 254° |
| 2026-05-05 02:00 | 39.28078 | -74.14395 | 1245 ft | 83 kts | 253° |
| 2026-05-05 02:00 | 39.27999 | -74.15137 | 1251 ft | 83 kts | 252° |
| 2026-05-05 02:00 | 39.27903 | -74.15876 | 1243 ft | 83 kts | 251° |
| 2026-05-05 02:01 | 39.27788 | -74.16606 | 1243 ft | 82 kts | 248° |
| 2026-05-05 02:01 | 39.27657 | -74.17317 | 1243 ft | 82 kts | 247° |
| 2026-05-05 02:01 | 39.27508 | -74.18029 | 1239 ft | 83 kts | 246° |
| 2026-05-05 02:01 | 39.27330 | -74.18752 | 1239 ft | 85 kts | 244° |
| 2026-05-05 02:02 | 39.27134 | -74.19456 | 1248 ft | 84 kts | 243° |
| 2026-05-05 02:02 | 39.26949 | -74.20161 | 1236 ft | 86 kts | 253° |
| 2026-05-05 02:02 | 39.27159 | -74.20945 | 1238 ft | 105 kts | 299° |
| 2026-05-05 02:02 | 39.27826 | -74.21456 | 1242 ft | 115 kts | 325° |
| 2026-05-05 02:03 | 39.28488 | -74.21985 | 1233 ft | 110 kts | 309° |
| 2026-05-05 02:03 | 39.28936 | -74.22725 | 1237 ft | 102 kts | 290° |
| 2026-05-05 02:03 | 39.29334 | -74.23504 | 1225 ft | 109 kts | 294° |
| 2026-05-05 02:03 | 39.29795 | -74.24289 | 1232 ft | 111 kts | 298° |
| 2026-05-05 02:04 | 39.30274 | -74.25076 | 1235 ft | 111 kts | 296° |
| 2026-05-05 02:04 | 39.30714 | -74.25875 | 1230 ft | 110 kts | 294° |
| 2026-05-05 02:04 | 39.31162 | -74.26680 | 1233 ft | 109 kts | 296° |
| 2026-05-05 02:04 | 39.31606 | -74.27454 | 1236 ft | 105 kts | 295° |
| 2026-05-05 02:05 | 39.32051 | -74.28204 | 1231 ft | 106 kts | 296° |
| 2026-05-05 02:05 | 39.32520 | -74.28933 | 1226 ft | 107 kts | 297° |
| 2026-05-05 02:05 | 39.32970 | -74.29667 | 1235 ft | 102 kts | 295° |
| 2026-05-05 02:05 | 39.33404 | -74.30411 | 1224 ft | 105 kts | 297° |
| 2026-05-05 02:06 | 39.33838 | -74.31161 | 1227 ft | 104 kts | 293° |
| 2026-05-05 02:06 | 39.34248 | -74.31936 | 1227 ft | 107 kts | 296° |
| 2026-05-05 02:06 | 39.34699 | -74.32726 | 1219 ft | 111 kts | 294° |
| 2026-05-05 02:06 | 39.35110 | -74.33551 | 1230 ft | 108 kts | 293° |
| 2026-05-05 02:07 | 39.35537 | -74.34351 | 1219 ft | 110 kts | 296° |
| 2026-05-05 02:07 | 39.35973 | -74.35159 | 1222 ft | 107 kts | 292° |
| 2026-05-05 02:07 | 39.36370 | -74.35931 | 1220 ft | 103 kts | 295° |
| 2026-05-05 02:07 | 39.36793 | -74.36702 | 1221 ft | 107 kts | 292° |
| 2026-05-05 02:08 | 39.37159 | -74.37521 | 1215 ft | 108 kts | 288° |
| 2026-05-05 02:08 | 39.37502 | -74.38414 | 1224 ft | 111 kts | 286° |
| 2026-05-05 02:08 | 39.37836 | -74.39326 | 1223 ft | 113 kts | 285° |
| 2026-05-05 02:08 | 39.38179 | -74.40229 | 1215 ft | 114 kts | 287° |
| 2026-05-05 02:09 | 39.38526 | -74.41138 | 1221 ft | 112 kts | 286° |
| 2026-05-05 02:09 | 39.38854 | -74.42030 | 1229 ft | 109 kts | 286° |
| 2026-05-05 02:09 | 39.39177 | -74.42922 | 1222 ft | 110 kts | 285° |
| 2026-05-05 02:09 | 39.39489 | -74.43816 | 1231 ft | 107 kts | 284° |
| 2026-05-05 02:10 | 39.39774 | -74.44677 | 1221 ft | 102 kts | 277° |
| 2026-05-05 02:10 | 39.39870 | -74.45555 | 1224 ft | 97 kts | 265° |
| 2026-05-05 02:10 | 39.39929 | -74.46421 | 1246 ft | 102 kts | 273° |
| 2026-05-05 02:10 | 39.40270 | -74.47263 | 1308 ft | 111 kts | 296° |
| 2026-05-05 02:11 | 39.40750 | -74.48059 | 1315 ft | 114 kts | 301° |
| 2026-05-05 02:11 | 39.41280 | -74.48829 | 1237 ft | 115 kts | 302° |
| 2026-05-05 02:11 | 39.41772 | -74.49626 | 1148 ft | 112 kts | 298° |
| 2026-05-05 02:11 | 39.42338 | -74.50346 | 1044 ft | 117 kts | 315° |
| 2026-05-05 02:12 | 39.42971 | -74.51006 | 952 ft | 116 kts | 310° |
| 2026-05-05 02:12 | 39.44036 | -74.52522 | 751 ft | 116 kts | 307° |
| 2026-05-05 02:12 | 39.44724 | -74.53107 | 724 ft | 121 kts | 331° |
| 2026-05-05 02:13 | 39.45479 | -74.53588 | 683 ft | 120 kts | 328° |
| 2026-05-05 02:13 | 39.46124 | -74.54215 | 665 ft | 112 kts | 304° |
| 2026-05-05 02:13 | 39.46491 | -74.54972 | 675 ft | 97 kts | 282° |
| 2026-05-05 02:13 | 39.46441 | -74.55676 | 696 ft | 64 kts | 225° |
| 2026-05-05 02:14 | 39.46195 | -74.55983 | 607 ft | 38 kts | 210° |
| 2026-05-05 02:14 | 39.45994 | -74.56115 | 560 ft | 29 kts | 205° |
| 2026-05-05 02:14 | 39.45802 | -74.56211 | 450 ft | 29 kts | 202° |
| 2026-05-05 02:14 | 39.45608 | -74.56284 | 375 ft | 31 kts | 197° |
| 2026-05-05 02:15 | 39.45407 | -74.56354 | 294 ft | 27 kts | 200° |
| 2026-05-05 02:15 | 39.45254 | -74.56394 | 199 ft | 18 kts | 199° |
| 2026-05-05 02:15 | 39.45146 | -74.56389 | 141 ft | 13 kts | 198° |
| 2026-05-05 02:15 | 39.45070 | -74.56370 | 114 ft | 9 kts | 198° |
| 2026-05-05 02:16 | 39.45019 | -74.56347 | 93 ft | 7 kts | 198° |
| 2026-05-05 02:16 | 39.44990 | -74.56337 | 83 ft | 3 kts | 199° |
| 2026-05-05 02:16 | 39.44965 | -74.56347 | 82 ft | 4 kts | 199° |
| 2026-05-05 02:16 | 39.44945 | -74.56343 | 74 ft | 4 kts | 199° |
| 2026-05-05 02:17 | 39.44928 | -74.56338 | 73 ft | 5 kts | 198° |
| 2026-05-05 02:17 | 39.44945 | -74.56328 | 59 ft | 0 kts | 212° |
| 2026-05-05 02:17 | 39.44929 | -74.56340 | 67 ft | 4 kts | 208° |
| 2026-05-05 02:17 | 39.44919 | -74.56347 | 69 ft | 0 kts | 213° |